Аэропорт: Аулие-Ата. Тараз

ICAO: UADD

METAR:
2022-01-28 07:30:00
UADD 280730Z VRB01MPS 4800 BR NSC M00/M04 Q1010 NOSIG RMK QFE700/0934
METAR:
2022-01-28 05:02:00
TAF UADD 280502Z 2806/2815 36003G08MPS 3100 BR SCT100 TEMPO 2808/2815 0500 FZFG VV002